sensor_id;sensor_type;location;lat;lon;timestamp;temperature;humidity
22430;DHT22;11382;48.086;11.632;2023-04-24T00:01:05;10.20;99.90
22430;DHT22;11382;48.086;11.632;2023-04-24T00:03:34;10.20;99.90
22430;DHT22;11382;48.086;11.632;2023-04-24T00:06:03;10.30;99.90
22430;DHT22;11382;48.086;11.632;2023-04-24T00:08:31;10.20;99.90
22430;DHT22;11382;48.086;11.632;2023-04-24T00:10:59;10.20;99.90
22430;DHT22;11382;48.086;11.632;2023-04-24T00:13:29;10.20;99.90
22430;DHT22;11382;48.086;11.632;2023-04-24T00:15:57;10.10;99.90
22430;DHT22;11382;48.086;11.632;2023-04-24T00:18:24;10.10;99.90
22430;DHT22;11382;48.086;11.632;2023-04-24T00:20:52;10.10;99.90
22430;DHT22;11382;48.086;11.632;2023-04-24T00:23:20;10.10;99.90
22430;DHT22;11382;48.086;11.632;2023-04-24T00:25:48;10.10;99.90
22430;DHT22;11382;48.086;11.632;2023-04-24T00:28:16;10.00;99.90
22430;DHT22;11382;48.086;11.632;2023-04-24T00:30:45;10.10;99.90
22430;DHT22;11382;48.086;11.632;2023-04-24T00:33:13;10.20;99.90
22430;DHT22;11382;48.086;11.632;2023-04-24T00:35:41;10.10;99.90
22430;DHT22;11382;48.086;11.632;2023-04-24T00:38:10;10.10;99.90
22430;DHT22;11382;48.086;11.632;2023-04-24T00:40:38;10.10;99.90
22430;DHT22;11382;48.086;11.632;2023-04-24T00:43:06;10.00;99.90
22430;DHT22;11382;48.086;11.632;2023-04-24T00:45:36;10.00;99.90
22430;DHT22;11382;48.086;11.632;2023-04-24T00:48:05;9.90;99.90
22430;DHT22;11382;48.086;11.632;2023-04-24T00:50:35;10.00;99.90
22430;DHT22;11382;48.086;11.632;2023-04-24T00:53:04;9.90;99.90
22430;DHT22;11382;48.086;11.632;2023-04-24T00:55:32;9.90;99.90
22430;DHT22;11382;48.086;11.632;2023-04-24T00:58:00;9.90;99.90
22430;DHT22;11382;48.086;11.632;2023-04-24T01:00:28;9.90;99.90
22430;DHT22;11382;48.086;11.632;2023-04-24T01:02:58;10.00;99.90
22430;DHT22;11382;48.086;11.632;2023-04-24T01:05:28;9.90;99.90
22430;DHT22;11382;48.086;11.632;2023-04-24T01:07:56;9.80;99.90
22430;DHT22;11382;48.086;11.632;2023-04-24T01:10:26;9.80;99.90
22430;DHT22;11382;48.086;11.632;2023-04-24T01:12:55;9.80;99.90
22430;DHT22;11382;48.086;11.632;2023-04-24T01:15:23;9.80;99.90
22430;DHT22;11382;48.086;11.632;2023-04-24T01:17:51;9.80;99.90
22430;DHT22;11382;48.086;11.632;2023-04-24T01:20:20;9.70;99.90
22430;DHT22;11382;48.086;11.632;2023-04-24T01:22:49;9.70;99.90
22430;DHT22;11382;48.086;11.632;2023-04-24T01:25:17;9.60;99.90
22430;DHT22;11382;48.086;11.632;2023-04-24T01:27:46;9.60;99.90
22430;DHT22;11382;48.086;11.632;2023-04-24T01:30:14;9.50;99.90
22430;DHT22;11382;48.086;11.632;2023-04-24T01:32:43;9.50;99.90
22430;DHT22;11382;48.086;11.632;2023-04-24T01:35:12;9.50;99.90
22430;DHT22;11382;48.086;11.632;2023-04-24T01:37:40;9.50;99.90
22430;DHT22;11382;48.086;11.632;2023-04-24T01:40:10;9.50;99.90
22430;DHT22;11382;48.086;11.632;2023-04-24T01:42:38;9.50;99.90
22430;DHT22;11382;48.086;11.632;2023-04-24T01:45:10;9.40;99.90
22430;DHT22;11382;48.086;11.632;2023-04-24T01:47:38;9.40;99.90
22430;DHT22;11382;48.086;11.632;2023-04-24T01:50:08;9.40;99.90
22430;DHT22;11382;48.086;11.632;2023-04-24T01:52:38;9.40;99.90
22430;DHT22;11382;48.086;11.632;2023-04-24T01:55:08;9.40;99.90
22430;DHT22;11382;48.086;11.632;2023-04-24T01:57:37;9.40;99.90
22430;DHT22;11382;48.086;11.632;2023-04-24T02:00:06;9.40;99.90
22430;DHT22;11382;48.086;11.632;2023-04-24T02:02:40;9.30;99.90
22430;DHT22;11382;48.086;11.632;2023-04-24T02:05:13;9.30;99.90
22430;DHT22;11382;48.086;11.632;2023-04-24T02:07:41;9.40;99.90
22430;DHT22;11382;48.086;11.632;2023-04-24T02:10:10;9.40;99.90
22430;DHT22;11382;48.086;11.632;2023-04-24T02:12:41;9.40;99.90
22430;DHT22;11382;48.086;11.632;2023-04-24T02:15:10;9.30;99.90
22430;DHT22;11382;48.086;11.632;2023-04-24T02:17:38;9.30;99.90
22430;DHT22;11382;48.086;11.632;2023-04-24T02:20:07;9.30;99.90
22430;DHT22;11382;48.086;11.632;2023-04-24T02:22:37;9.30;99.90
22430;DHT22;11382;48.086;11.632;2023-04-24T02:25:06;9.30;99.90
22430;DHT22;11382;48.086;11.632;2023-04-24T02:27:35;9.30;99.90
22430;DHT22;11382;48.086;11.632;2023-04-24T02:30:06;9.20;99.90
22430;DHT22;11382;48.086;11.632;2023-04-24T02:32:34;9.20;99.90
22430;DHT22;11382;48.086;11.632;2023-04-24T02:35:03;9.20;99.90
22430;DHT22;11382;48.086;11.632;2023-04-24T02:37:31;9.20;99.90
22430;DHT22;11382;48.086;11.632;2023-04-24T02:39:59;9.20;99.90
22430;DHT22;11382;48.086;11.632;2023-04-24T02:42:27;9.20;99.90
22430;DHT22;11382;48.086;11.632;2023-04-24T02:44:57;9.20;99.90
22430;DHT22;11382;48.086;11.632;2023-04-24T02:47:25;9.20;99.90
22430;DHT22;11382;48.086;11.632;2023-04-24T02:49:53;9.20;99.90
22430;DHT22;11382;48.086;11.632;2023-04-24T02:52:21;9.20;99.90
22430;DHT22;11382;48.086;11.632;2023-04-24T02:54:49;9.20;99.90
22430;DHT22;11382;48.086;11.632;2023-04-24T02:57:17;9.20;99.90
22430;DHT22;11382;48.086;11.632;2023-04-24T02:59:45;9.10;99.90
22430;DHT22;11382;48.086;11.632;2023-04-24T03:02:14;9.10;99.90
22430;DHT22;11382;48.086;11.632;2023-04-24T03:04:42;9.10;99.90
22430;DHT22;11382;48.086;11.632;2023-04-24T03:07:10;9.10;99.90
22430;DHT22;11382;48.086;11.632;2023-04-24T03:09:38;9.10;99.90
22430;DHT22;11382;48.086;11.632;2023-04-24T03:12:07;9.10;99.90
22430;DHT22;11382;48.086;11.632;2023-04-24T03:14:35;9.10;99.90
22430;DHT22;11382;48.086;11.632;2023-04-24T03:17:03;9.10;99.90
22430;DHT22;11382;48.086;11.632;2023-04-24T03:19:33;9.10;99.90
22430;DHT22;11382;48.086;11.632;2023-04-24T03:22:07;9.10;99.90
22430;DHT22;11382;48.086;11.632;2023-04-24T03:24:36;9.00;99.90
22430;DHT22;11382;48.086;11.632;2023-04-24T03:27:04;9.00;99.90
22430;DHT22;11382;48.086;11.632;2023-04-24T03:30:06;9.00;99.90
22430;DHT22;11382;48.086;11.632;2023-04-24T03:32:51;9.00;99.90
22430;DHT22;11382;48.086;11.632;2023-04-24T03:35:26;8.90;99.90
22430;DHT22;11382;48.086;11.632;2023-04-24T03:37:55;9.00;99.90
22430;DHT22;11382;48.086;11.632;2023-04-24T03:40:49;9.00;99.90
22430;DHT22;11382;48.086;11.632;2023-04-24T03:43:32;9.00;99.90
22430;DHT22;11382;48.086;11.632;2023-04-24T03:46:00;9.00;99.90
22430;DHT22;11382;48.086;11.632;2023-04-24T03:48:30;9.00;99.90
22430;DHT22;11382;48.086;11.632;2023-04-24T03:51:00;9.00;99.90
22430;DHT22;11382;48.086;11.632;2023-04-24T03:53:29;9.00;99.90
22430;DHT22;11382;48.086;11.632;2023-04-24T03:55:58;8.90;99.90
22430;DHT22;11382;48.086;11.632;2023-04-24T03:58:27;8.90;99.90
22430;DHT22;11382;48.086;11.632;2023-04-24T04:00:55;8.90;99.90
22430;DHT22;11382;48.086;11.632;2023-04-24T04:04:03;8.90;99.90
22430;DHT22;11382;48.086;11.632;2023-04-24T04:06:33;8.90;99.90
22430;DHT22;11382;48.086;11.632;2023-04-24T04:09:01;9.00;99.90
22430;DHT22;11382;48.086;11.632;2023-04-24T04:11:29;9.00;99.90
22430;DHT22;11382;48.086;11.632;2023-04-24T04:13:58;9.00;99.90
22430;DHT22;11382;48.086;11.632;2023-04-24T04:16:26;9.00;99.90
22430;DHT22;11382;48.086;11.632;2023-04-24T04:19:00;9.00;99.90
22430;DHT22;11382;48.086;11.632;2023-04-24T04:21:29;8.90;99.90
22430;DHT22;11382;48.086;11.632;2023-04-24T04:24:22;8.90;99.90
22430;DHT22;11382;48.086;11.632;2023-04-24T04:26:51;8.90;99.90
22430;DHT22;11382;48.086;11.632;2023-04-24T04:29:27;9.00;99.90
22430;DHT22;11382;48.086;11.632;2023-04-24T04:31:56;9.00;99.90
22430;DHT22;11382;48.086;11.632;2023-04-24T04:34:24;8.90;99.90
22430;DHT22;11382;48.086;11.632;2023-04-24T04:36:52;9.00;99.90
22430;DHT22;11382;48.086;11.632;2023-04-24T04:39:45;9.00;99.90
22430;DHT22;11382;48.086;11.632;2023-04-24T04:42:18;9.00;99.90
22430;DHT22;11382;48.086;11.632;2023-04-24T04:44:46;9.00;99.90
22430;DHT22;11382;48.086;11.632;2023-04-24T04:47:22;9.10;99.90
22430;DHT22;11382;48.086;11.632;2023-04-24T04:49:52;9.10;99.90
22430;DHT22;11382;48.086;11.632;2023-04-24T04:52:23;9.10;99.90
22430;DHT22;11382;48.086;11.632;2023-04-24T04:55:11;9.10;99.90
22430;DHT22;11382;48.086;11.632;2023-04-24T04:58:07;9.10;99.90
22430;DHT22;11382;48.086;11.632;2023-04-24T05:00:35;9.10;99.90
22430;DHT22;11382;48.086;11.632;2023-04-24T05:03:15;9.10;99.90
22430;DHT22;11382;48.086;11.632;2023-04-24T05:05:53;9.10;99.90
22430;DHT22;11382;48.086;11.632;2023-04-24T05:08:23;9.10;99.90
22430;DHT22;11382;48.086;11.632;2023-04-24T05:10:55;9.10;99.90
22430;DHT22;11382;48.086;11.632;2023-04-24T05:13:26;9.10;99.90
22430;DHT22;11382;48.086;11.632;2023-04-24T05:16:09;9.10;99.90
22430;DHT22;11382;48.086;11.632;2023-04-24T05:18:38;9.20;99.90
22430;DHT22;11382;48.086;11.632;2023-04-24T05:21:08;9.30;99.90
22430;DHT22;11382;48.086;11.632;2023-04-24T05:23:39;9.30;99.90
22430;DHT22;11382;48.086;11.632;2023-04-24T05:26:08;9.30;99.90
22430;DHT22;11382;48.086;11.632;2023-04-24T05:28:36;9.30;99.90
22430;DHT22;11382;48.086;11.632;2023-04-24T05:31:09;9.30;99.90
22430;DHT22;11382;48.086;11.632;2023-04-24T05:33:37;9.40;99.90
22430;DHT22;11382;48.086;11.632;2023-04-24T05:36:06;9.40;99.90
22430;DHT22;11382;48.086;11.632;2023-04-24T05:38:35;9.50;99.90
22430;DHT22;11382;48.086;11.632;2023-04-24T05:41:03;9.50;99.90
22430;DHT22;11382;48.086;11.632;2023-04-24T05:43:33;9.60;99.90
22430;DHT22;11382;48.086;11.632;2023-04-24T05:46:01;9.60;99.90
22430;DHT22;11382;48.086;11.632;2023-04-24T05:48:29;9.70;99.90
22430;DHT22;11382;48.086;11.632;2023-04-24T05:51:00;9.80;99.90
22430;DHT22;11382;48.086;11.632;2023-04-24T05:53:28;9.90;99.90
22430;DHT22;11382;48.086;11.632;2023-04-24T05:55:56;9.90;99.90
22430;DHT22;11382;48.086;11.632;2023-04-24T05:58:24;9.80;99.90
22430;DHT22;11382;48.086;11.632;2023-04-24T06:00:54;9.70;99.90
22430;DHT22;11382;48.086;11.632;2023-04-24T06:03:24;9.80;99.90
22430;DHT22;11382;48.086;11.632;2023-04-24T06:05:54;9.90;99.90
22430;DHT22;11382;48.086;11.632;2023-04-24T06:08:23;10.00;99.90
22430;DHT22;11382;48.086;11.632;2023-04-24T06:10:51;10.10;99.90
22430;DHT22;11382;48.086;11.632;2023-04-24T06:13:22;10.20;99.90
22430;DHT22;11382;48.086;11.632;2023-04-24T06:16:14;10.30;99.90
22430;DHT22;11382;48.086;11.632;2023-04-24T06:18:48;10.40;99.90
22430;DHT22;11382;48.086;11.632;2023-04-24T06:21:20;10.40;99.90
22430;DHT22;11382;48.086;11.632;2023-04-24T06:23:48;10.50;99.90
22430;DHT22;11382;48.086;11.632;2023-04-24T06:26:16;10.60;99.90
22430;DHT22;11382;48.086;11.632;2023-04-24T06:28:44;10.60;99.90
22430;DHT22;11382;48.086;11.632;2023-04-24T06:31:13;10.80;99.90
22430;DHT22;11382;48.086;11.632;2023-04-24T06:33:41;10.80;99.90
22430;DHT22;11382;48.086;11.632;2023-04-24T06:36:10;11.00;99.90
22430;DHT22;11382;48.086;11.632;2023-04-24T06:38:38;11.10;99.90
22430;DHT22;11382;48.086;11.632;2023-04-24T06:41:06;11.10;99.90
22430;DHT22;11382;48.086;11.632;2023-04-24T06:43:34;10.90;99.90
22430;DHT22;11382;48.086;11.632;2023-04-24T06:46:02;10.80;99.90
22430;DHT22;11382;48.086;11.632;2023-04-24T06:48:31;11.00;99.90
22430;DHT22;11382;48.086;11.632;2023-04-24T06:50:59;11.60;99.90
22430;DHT22;11382;48.086;11.632;2023-04-24T06:53:27;11.80;99.90
22430;DHT22;11382;48.086;11.632;2023-04-24T06:55:55;12.00;99.90
22430;DHT22;11382;48.086;11.632;2023-04-24T06:58:24;12.20;99.90
22430;DHT22;11382;48.086;11.632;2023-04-24T07:00:52;12.60;99.90
22430;DHT22;11382;48.086;11.632;2023-04-24T07:03:20;13.00;99.90
22430;DHT22;11382;48.086;11.632;2023-04-24T07:05:50;13.60;99.90
22430;DHT22;11382;48.086;11.632;2023-04-24T07:08:20;13.70;99.90
22430;DHT22;11382;48.086;11.632;2023-04-24T07:10:49;13.50;99.90
22430;DHT22;11382;48.086;11.632;2023-04-24T07:13:17;13.30;99.90
22430;DHT22;11382;48.086;11.632;2023-04-24T07:15:45;13.30;99.90
22430;DHT22;11382;48.086;11.632;2023-04-24T07:18:15;13.20;99.90
22430;DHT22;11382;48.086;11.632;2023-04-24T07:20:44;13.40;99.90
22430;DHT22;11382;48.086;11.632;2023-04-24T07:23:14;13.80;99.90
22430;DHT22;11382;48.086;11.632;2023-04-24T07:25:42;14.50;99.90
22430;DHT22;11382;48.086;11.632;2023-04-24T07:28:11;14.60;99.90
22430;DHT22;11382;48.086;11.632;2023-04-24T07:30:39;15.30;99.90
22430;DHT22;11382;48.086;11.632;2023-04-24T07:33:07;16.00;99.90
22430;DHT22;11382;48.086;11.632;2023-04-24T07:35:35;16.20;99.90
22430;DHT22;11382;48.086;11.632;2023-04-24T07:38:03;16.10;99.90
22430;DHT22;11382;48.086;11.632;2023-04-24T07:40:32;15.00;99.90
22430;DHT22;11382;48.086;11.632;2023-04-24T07:43:00;14.40;99.90
22430;DHT22;11382;48.086;11.632;2023-04-24T07:45:27;13.60;99.90
22430;DHT22;11382;48.086;11.632;2023-04-24T07:47:55;13.10;99.90
22430;DHT22;11382;48.086;11.632;2023-04-24T07:50:23;13.00;99.90
22430;DHT22;11382;48.086;11.632;2023-04-24T07:52:51;12.80;99.90
22430;DHT22;11382;48.086;11.632;2023-04-24T07:55:20;12.60;99.90
22430;DHT22;11382;48.086;11.632;2023-04-24T07:57:53;12.60;99.90
22430;DHT22;11382;48.086;11.632;2023-04-24T08:00:21;12.70;99.90
22430;DHT22;11382;48.086;11.632;2023-04-24T08:02:49;12.90;99.90
22430;DHT22;11382;48.086;11.632;2023-04-24T08:05:17;13.00;99.90
22430;DHT22;11382;48.086;11.632;2023-04-24T08:07:46;13.20;99.90
22430;DHT22;11382;48.086;11.632;2023-04-24T08:10:15;13.00;99.90
22430;DHT22;11382;48.086;11.632;2023-04-24T08:12:43;12.90;99.90
22430;DHT22;11382;48.086;11.632;2023-04-24T08:15:13;12.90;99.90
22430;DHT22;11382;48.086;11.632;2023-04-24T08:17:41;12.90;99.90
22430;DHT22;11382;48.086;11.632;2023-04-24T08:20:11;12.80;99.90
22430;DHT22;11382;48.086;11.632;2023-04-24T08:22:41;12.90;99.90
22430;DHT22;11382;48.086;11.632;2023-04-24T08:25:09;13.10;99.90
22430;DHT22;11382;48.086;11.632;2023-04-24T08:27:38;13.30;99.90
22430;DHT22;11382;48.086;11.632;2023-04-24T08:30:07;12.90;99.90
22430;DHT22;11382;48.086;11.632;2023-04-24T08:32:36;12.50;99.90
22430;DHT22;11382;48.086;11.632;2023-04-24T08:35:05;12.40;99.90
22430;DHT22;11382;48.086;11.632;2023-04-24T08:37:35;12.20;99.90
22430;DHT22;11382;48.086;11.632;2023-04-24T08:40:07;12.10;99.90
22430;DHT22;11382;48.086;11.632;2023-04-24T08:42:37;11.90;99.90
22430;DHT22;11382;48.086;11.632;2023-04-24T08:45:06;11.70;99.90
22430;DHT22;11382;48.086;11.632;2023-04-24T08:47:37;11.50;99.90
22430;DHT22;11382;48.086;11.632;2023-04-24T08:50:07;11.40;99.90
22430;DHT22;11382;48.086;11.632;2023-04-24T08:52:35;11.30;99.90
22430;DHT22;11382;48.086;11.632;2023-04-24T08:55:04;11.30;99.90
22430;DHT22;11382;48.086;11.632;2023-04-24T08:57:33;11.60;99.90
22430;DHT22;11382;48.086;11.632;2023-04-24T09:00:03;12.00;99.90
22430;DHT22;11382;48.086;11.632;2023-04-24T09:02:31;12.50;99.90
22430;DHT22;11382;48.086;11.632;2023-04-24T09:05:05;12.80;99.90
22430;DHT22;11382;48.086;11.632;2023-04-24T09:07:35;12.40;99.90
22430;DHT22;11382;48.086;11.632;2023-04-24T09:10:04;11.90;99.90
22430;DHT22;11382;48.086;11.632;2023-04-24T09:12:32;11.60;99.90
22430;DHT22;11382;48.086;11.632;2023-04-24T09:15:02;11.80;99.90
22430;DHT22;11382;48.086;11.632;2023-04-24T09:17:31;12.30;99.90
22430;DHT22;11382;48.086;11.632;2023-04-24T09:20:00;12.70;99.90
22430;DHT22;11382;48.086;11.632;2023-04-24T09:22:30;12.80;99.90
22430;DHT22;11382;48.086;11.632;2023-04-24T09:25:03;12.60;99.90
22430;DHT22;11382;48.086;11.632;2023-04-24T09:27:32;12.40;99.90
22430;DHT22;11382;48.086;11.632;2023-04-24T09:30:01;12.30;99.90
22430;DHT22;11382;48.086;11.632;2023-04-24T09:32:29;12.30;99.90
22430;DHT22;11382;48.086;11.632;2023-04-24T09:35:09;12.30;99.90
22430;DHT22;11382;48.086;11.632;2023-04-24T09:37:41;12.60;99.90
22430;DHT22;11382;48.086;11.632;2023-04-24T09:40:15;13.50;99.90
22430;DHT22;11382;48.086;11.632;2023-04-24T09:42:44;14.50;99.90
22430;DHT22;11382;48.086;11.632;2023-04-24T09:45:12;15.00;99.90
22430;DHT22;11382;48.086;11.632;2023-04-24T09:47:42;14.80;99.90
22430;DHT22;11382;48.086;11.632;2023-04-24T09:50:12;14.80;99.90
22430;DHT22;11382;48.086;11.632;2023-04-24T09:52:45;15.30;99.90
22430;DHT22;11382;48.086;11.632;2023-04-24T09:55:16;15.70;99.90
22430;DHT22;11382;48.086;11.632;2023-04-24T09:57:49;15.70;99.90
22430;DHT22;11382;48.086;11.632;2023-04-24T10:00:24;15.40;99.90
22430;DHT22;11382;48.086;11.632;2023-04-24T10:02:57;15.60;99.90
22430;DHT22;11382;48.086;11.632;2023-04-24T10:05:29;15.30;99.90
22430;DHT22;11382;48.086;11.632;2023-04-24T10:08:05;15.50;99.90
22430;DHT22;11382;48.086;11.632;2023-04-24T10:10:35;15.80;99.90
22430;DHT22;11382;48.086;11.632;2023-04-24T10:13:05;15.80;99.90
22430;DHT22;11382;48.086;11.632;2023-04-24T10:15:34;16.00;99.90
22430;DHT22;11382;48.086;11.632;2023-04-24T10:18:04;15.90;99.90
22430;DHT22;11382;48.086;11.632;2023-04-24T10:20:34;15.90;99.90
22430;DHT22;11382;48.086;11.632;2023-04-24T10:23:05;16.20;99.90
22430;DHT22;11382;48.086;11.632;2023-04-24T10:25:34;16.30;99.90
22430;DHT22;11382;48.086;11.632;2023-04-24T10:28:04;16.60;99.90
22430;DHT22;11382;48.086;11.632;2023-04-24T10:30:35;16.70;99.90
22430;DHT22;11382;48.086;11.632;2023-04-24T10:33:04;16.70;99.90
22430;DHT22;11382;48.086;11.632;2023-04-24T10:35:36;16.40;99.90
22430;DHT22;11382;48.086;11.632;2023-04-24T10:38:09;15.90;99.90
22430;DHT22;11382;48.086;11.632;2023-04-24T10:40:39;15.00;99.90
22430;DHT22;11382;48.086;11.632;2023-04-24T10:43:07;14.80;99.90
22430;DHT22;11382;48.086;11.632;2023-04-24T10:45:38;14.50;99.90
22430;DHT22;11382;48.086;11.632;2023-04-24T10:48:07;14.20;99.90
22430;DHT22;11382;48.086;11.632;2023-04-24T10:50:44;14.10;99.90
22430;DHT22;11382;48.086;11.632;2023-04-24T10:53:16;13.90;99.90
22430;DHT22;11382;48.086;11.632;2023-04-24T10:55:46;13.80;99.90
22430;DHT22;11382;48.086;11.632;2023-04-24T10:58:15;13.80;99.90
22430;DHT22;11382;48.086;11.632;2023-04-24T11:00:48;13.10;99.90
22430;DHT22;11382;48.086;11.632;2023-04-24T11:03:25;12.20;99.90
22430;DHT22;11382;48.086;11.632;2023-04-24T11:05:56;11.50;99.90
22430;DHT22;11382;48.086;11.632;2023-04-24T11:08:28;11.30;99.90
22430;DHT22;11382;48.086;11.632;2023-04-24T11:11:02;11.40;99.90
22430;DHT22;11382;48.086;11.632;2023-04-24T11:14:04;11.60;99.90
22430;DHT22;11382;48.086;11.632;2023-04-24T11:16:35;12.20;99.90
22430;DHT22;11382;48.086;11.632;2023-04-24T11:19:06;13.00;99.90
22430;DHT22;11382;48.086;11.632;2023-04-24T11:21:40;13.90;99.90
22430;DHT22;11382;48.086;11.632;2023-04-24T11:24:26;15.70;99.90
22430;DHT22;11382;48.086;11.632;2023-04-24T11:26:55;17.40;99.90
22430;DHT22;11382;48.086;11.632;2023-04-24T11:29:42;18.10;99.90
22430;DHT22;11382;48.086;11.632;2023-04-24T11:32:19;18.00;99.90
22430;DHT22;11382;48.086;11.632;2023-04-24T11:34:48;17.50;99.90
22430;DHT22;11382;48.086;11.632;2023-04-24T11:37:16;16.90;99.90
22430;DHT22;11382;48.086;11.632;2023-04-24T11:39:46;17.60;99.90
22430;DHT22;11382;48.086;11.632;2023-04-24T11:42:15;17.80;99.90
22430;DHT22;11382;48.086;11.632;2023-04-24T11:44:44;17.30;99.90
22430;DHT22;11382;48.086;11.632;2023-04-24T11:47:14;17.00;99.90
22430;DHT22;11382;48.086;11.632;2023-04-24T11:49:42;16.20;99.90
22430;DHT22;11382;48.086;11.632;2023-04-24T11:52:11;15.40;99.90
22430;DHT22;11382;48.086;11.632;2023-04-24T11:54:48;15.10;99.90
22430;DHT22;11382;48.086;11.632;2023-04-24T11:57:19;14.80;99.90
22430;DHT22;11382;48.086;11.632;2023-04-24T11:59:49;14.60;99.90
22430;DHT22;11382;48.086;11.632;2023-04-24T12:02:21;14.80;99.90
22430;DHT22;11382;48.086;11.632;2023-04-24T12:04:49;15.60;99.90
22430;DHT22;11382;48.086;11.632;2023-04-24T12:07:18;15.90;99.90
22430;DHT22;11382;48.086;11.632;2023-04-24T12:09:48;15.70;99.90
22430;DHT22;11382;48.086;11.632;2023-04-24T12:12:18;14.80;99.90
22430;DHT22;11382;48.086;11.632;2023-04-24T12:14:49;13.90;99.90
22430;DHT22;11382;48.086;11.632;2023-04-24T12:17:24;13.40;99.90
22430;DHT22;11382;48.086;11.632;2023-04-24T12:19:57;13.30;99.90
22430;DHT22;11382;48.086;11.632;2023-04-24T12:22:26;13.40;99.90
22430;DHT22;11382;48.086;11.632;2023-04-24T12:25:00;13.50;99.90
22430;DHT22;11382;48.086;11.632;2023-04-24T12:27:30;13.10;99.90
22430;DHT22;11382;48.086;11.632;2023-04-24T12:30:01;12.70;99.90
22430;DHT22;11382;48.086;11.632;2023-04-24T12:32:30;12.40;99.90
22430;DHT22;11382;48.086;11.632;2023-04-24T12:34:58;12.60;99.90
22430;DHT22;11382;48.086;11.632;2023-04-24T12:37:32;13.00;99.90
22430;DHT22;11382;48.086;11.632;2023-04-24T12:40:07;13.60;99.90
22430;DHT22;11382;48.086;11.632;2023-04-24T12:42:41;14.20;99.90
22430;DHT22;11382;48.086;11.632;2023-04-24T12:45:10;14.40;99.90
22430;DHT22;11382;48.086;11.632;2023-04-24T12:47:39;14.40;99.90
22430;DHT22;11382;48.086;11.632;2023-04-24T12:50:08;14.20;99.90
22430;DHT22;11382;48.086;11.632;2023-04-24T12:52:37;14.10;99.90
22430;DHT22;11382;48.086;11.632;2023-04-24T12:55:07;13.60;99.90
22430;DHT22;11382;48.086;11.632;2023-04-24T12:57:37;13.10;99.90
22430;DHT22;11382;48.086;11.632;2023-04-24T13:00:07;12.60;99.90
22430;DHT22;11382;48.086;11.632;2023-04-24T13:02:35;12.60;99.90
22430;DHT22;11382;48.086;11.632;2023-04-24T13:05:04;12.80;99.90
22430;DHT22;11382;48.086;11.632;2023-04-24T13:07:32;12.90;99.90
22430;DHT22;11382;48.086;11.632;2023-04-24T13:10:00;13.00;99.90
22430;DHT22;11382;48.086;11.632;2023-04-24T13:12:29;13.20;99.90
22430;DHT22;11382;48.086;11.632;2023-04-24T13:14:58;13.50;99.90
22430;DHT22;11382;48.086;11.632;2023-04-24T13:17:26;14.10;99.90
22430;DHT22;11382;48.086;11.632;2023-04-24T13:19:54;14.30;99.90
22430;DHT22;11382;48.086;11.632;2023-04-24T13:22:22;14.70;99.90
22430;DHT22;11382;48.086;11.632;2023-04-24T13:24:50;14.90;99.90
22430;DHT22;11382;48.086;11.632;2023-04-24T13:27:18;14.80;99.90
22430;DHT22;11382;48.086;11.632;2023-04-24T13:29:47;14.50;99.90
22430;DHT22;11382;48.086;11.632;2023-04-24T13:32:16;14.40;99.90
22430;DHT22;11382;48.086;11.632;2023-04-24T13:34:45;14.30;99.90
22430;DHT22;11382;48.086;11.632;2023-04-24T13:37:13;14.00;99.90
22430;DHT22;11382;48.086;11.632;2023-04-24T13:39:41;13.90;99.90
22430;DHT22;11382;48.086;11.632;2023-04-24T13:42:09;13.80;99.90
22430;DHT22;11382;48.086;11.632;2023-04-24T13:44:37;13.40;99.90
22430;DHT22;11382;48.086;11.632;2023-04-24T13:47:06;13.30;99.90
22430;DHT22;11382;48.086;11.632;2023-04-24T13:49:34;13.50;99.90
22430;DHT22;11382;48.086;11.632;2023-04-24T13:52:03;13.60;99.90
22430;DHT22;11382;48.086;11.632;2023-04-24T13:54:31;13.30;99.90
22430;DHT22;11382;48.086;11.632;2023-04-24T13:56:59;13.10;99.90
22430;DHT22;11382;48.086;11.632;2023-04-24T13:59:27;13.10;99.90
22430;DHT22;11382;48.086;11.632;2023-04-24T14:01:55;13.20;99.90
22430;DHT22;11382;48.086;11.632;2023-04-24T14:04:25;13.10;99.90
22430;DHT22;11382;48.086;11.632;2023-04-24T14:06:53;13.10;99.90
22430;DHT22;11382;48.086;11.632;2023-04-24T14:09:21;13.70;99.90
22430;DHT22;11382;48.086;11.632;2023-04-24T14:11:49;14.00;99.90
22430;DHT22;11382;48.086;11.632;2023-04-24T14:14:17;14.00;99.90
22430;DHT22;11382;48.086;11.632;2023-04-24T14:16:45;14.10;99.90
22430;DHT22;11382;48.086;11.632;2023-04-24T14:19:13;14.30;99.90
22430;DHT22;11382;48.086;11.632;2023-04-24T14:21:42;14.70;99.90
22430;DHT22;11382;48.086;11.632;2023-04-24T14:24:10;14.90;99.90
22430;DHT22;11382;48.086;11.632;2023-04-24T14:26:38;14.90;99.90
22430;DHT22;11382;48.086;11.632;2023-04-24T14:29:06;15.10;99.90
22430;DHT22;11382;48.086;11.632;2023-04-24T14:31:40;14.80;99.90
22430;DHT22;11382;48.086;11.632;2023-04-24T14:34:09;14.80;99.90
22430;DHT22;11382;48.086;11.632;2023-04-24T14:36:37;14.70;99.90
22430;DHT22;11382;48.086;11.632;2023-04-24T14:39:07;14.70;99.90
22430;DHT22;11382;48.086;11.632;2023-04-24T14:41:35;15.10;99.90
22430;DHT22;11382;48.086;11.632;2023-04-24T14:44:04;15.30;99.90
22430;DHT22;11382;48.086;11.632;2023-04-24T14:46:32;15.10;99.90
22430;DHT22;11382;48.086;11.632;2023-04-24T14:49:00;15.10;99.90
22430;DHT22;11382;48.086;11.632;2023-04-24T14:51:28;15.00;99.90
22430;DHT22;11382;48.086;11.632;2023-04-24T14:53:56;14.60;99.90
22430;DHT22;11382;48.086;11.632;2023-04-24T14:56:26;14.40;99.90
22430;DHT22;11382;48.086;11.632;2023-04-24T14:58:54;14.10;99.90
22430;DHT22;11382;48.086;11.632;2023-04-24T15:01:22;14.00;99.90
22430;DHT22;11382;48.086;11.632;2023-04-24T15:03:52;14.00;99.90
22430;DHT22;11382;48.086;11.632;2023-04-24T15:06:20;13.70;99.90
22430;DHT22;11382;48.086;11.632;2023-04-24T15:08:48;13.70;99.90
22430;DHT22;11382;48.086;11.632;2023-04-24T15:11:17;14.00;99.90
22430;DHT22;11382;48.086;11.632;2023-04-24T15:13:46;14.30;99.90
22430;DHT22;11382;48.086;11.632;2023-04-24T15:16:14;14.30;99.90
22430;DHT22;11382;48.086;11.632;2023-04-24T15:18:42;14.40;99.90
22430;DHT22;11382;48.086;11.632;2023-04-24T15:21:10;14.40;99.90
22430;DHT22;11382;48.086;11.632;2023-04-24T15:23:39;14.50;99.90
22430;DHT22;11382;48.086;11.632;2023-04-24T15:26:07;14.40;99.90
22430;DHT22;11382;48.086;11.632;2023-04-24T15:28:35;14.40;99.90
22430;DHT22;11382;48.086;11.632;2023-04-24T15:31:04;14.20;99.90
22430;DHT22;11382;48.086;11.632;2023-04-24T15:33:32;14.00;99.90
22430;DHT22;11382;48.086;11.632;2023-04-24T15:36:00;13.80;99.90
22430;DHT22;11382;48.086;11.632;2023-04-24T15:38:28;13.70;99.90